Richland, Mississippi
Current Conditions -  °F | °C
As of 6:14 AM on Monday 24 Nov 2014 (Local Time) from KJAN Reporting Station
Scattered Clouds Scattered Clouds  
Wind Chill: 58°   Ceiling: Unl
Heat Index: 58°   Visibility: 10mi
Dew Point: 50°   Wind: 14mph
Humidity: 75%   Direction: 310°NW
Pressure: 29.8"   Gusts: 22mph
Location:  32.2326°N, 90.165°W
Report Text: KJAN 241214Z 31012G19KT 10SM SCT018 14/10 A2980 RMK AO2 PRESRR T01440100
Loading
Personal Weather Stations






























Interactive Weather Map New forecast layout! Learn more

10-Day Weather Forecast

Advertisements
Track Severe Weather on mobile